WZZ1EL EDDS-EKCH
Flight info
| Callsign | WZZ1EL |
|---|---|
| Flight time | N/A |
| Altitude | 37000 |
| Route | OKIBA4B/25 OKIBA N851 RIMKI Z99 LOHRE DCT MASEK DCT BERXO DCT MAKEL/N0415F310 N851 GESKA Z711 MONAK |
| Aircraft | A320/M-SDE3FGHIRWY/LB1 |
Departure
| Time | 2026-05-06 17:20 |
|---|---|
| Airport | Stuttgart Airport (EDDS) |
Arrival
| Time | N/A |
|---|---|
| Airport | Copenhagen Kastrup Airport (EKCH) |
| Time | Latitude | Longitude | Altitude | Speed | Heading |
|---|---|---|---|---|---|
| 2026-05-06 16:55 | 48.68961 | 9.19778 | 1286 ft | 0 kts | 345° |
| 2026-05-06 17:10 | 48.68960 | 9.19778 | 1285 ft | 2 kts | 345° |
| 2026-05-06 17:10 | 48.68945 | 9.19784 | 1289 ft | 2 kts | 345° |
| 2026-05-06 17:11 | 48.68929 | 9.19791 | 1288 ft | 2 kts | 345° |
| 2026-05-06 17:11 | 48.68912 | 9.19794 | 1287 ft | 2 kts | 17° |
| 2026-05-06 17:11 | 48.68897 | 9.19782 | 1290 ft | 2 kts | 52° |
| 2026-05-06 17:11 | 48.68892 | 9.19771 | 1290 ft | 0 kts | 69° |
| 2026-05-06 17:13 | 48.68892 | 9.19772 | 1290 ft | 1 kts | 69° |
| 2026-05-06 17:13 | 48.68895 | 9.19812 | 1291 ft | 7 kts | 94° |
| 2026-05-06 17:13 | 48.68861 | 9.19873 | 1287 ft | 9 kts | 156° |
| 2026-05-06 17:14 | 48.68825 | 9.19960 | 1285 ft | 12 kts | 78° |
| 2026-05-06 17:14 | 48.68851 | 9.20108 | 1287 ft | 17 kts | 75° |
| 2026-05-06 17:14 | 48.68888 | 9.20304 | 1285 ft | 22 kts | 73° |
| 2026-05-06 17:14 | 48.68937 | 9.20558 | 1287 ft | 28 kts | 74° |
| 2026-05-06 17:15 | 48.68996 | 9.20875 | 1289 ft | 35 kts | 74° |
| 2026-05-06 17:15 | 48.69071 | 9.21269 | 1288 ft | 42 kts | 71° |
| 2026-05-06 17:15 | 48.69159 | 9.21712 | 1286 ft | 45 kts | 73° |
| 2026-05-06 17:15 | 48.69251 | 9.22184 | 1290 ft | 48 kts | 73° |
| 2026-05-06 17:16 | 48.69344 | 9.22687 | 1285 ft | 52 kts | 76° |
| 2026-05-06 17:16 | 48.69437 | 9.23182 | 1289 ft | 43 kts | 74° |
| 2026-05-06 17:16 | 48.69518 | 9.23615 | 1285 ft | 42 kts | 74° |
| 2026-05-06 17:16 | 48.69597 | 9.24039 | 1289 ft | 42 kts | 73° |
| 2026-05-06 17:17 | 48.69554 | 9.24279 | 1286 ft | 17 kts | 142° |
| 2026-05-06 17:17 | 48.69440 | 9.24327 | 1285 ft | 17 kts | 185° |
| 2026-05-06 17:17 | 48.69367 | 9.24206 | 1285 ft | 17 kts | 254° |
| 2026-05-06 17:17 | 48.69361 | 9.24168 | 1287 ft | 0 kts | 255° |
| 2026-05-06 17:18 | 48.69340 | 9.24055 | 1286 ft | 37 kts | 253° |
| 2026-05-06 17:19 | 48.69211 | 9.23376 | 1286 ft | 95 kts | 253° |
| 2026-05-06 17:19 | 48.68980 | 9.22172 | 1286 ft | 141 kts | 253° |
| 2026-05-06 17:19 | 48.68681 | 9.20610 | 1456 ft | 161 kts | 254° |
| 2026-05-06 17:19 | 48.68389 | 9.18937 | 1868 ft | 169 kts | 256° |
| 2026-05-06 17:20 | 48.68115 | 9.17157 | 2344 ft | 177 kts | 255° |
| 2026-05-06 17:20 | 48.67831 | 9.15329 | 2845 ft | 179 kts | 255° |
| 2026-05-06 17:20 | 48.67539 | 9.13493 | 3415 ft | 181 kts | 256° |
| 2026-05-06 17:20 | 48.67196 | 9.11595 | 3825 ft | 194 kts | 258° |
| 2026-05-06 17:21 | 48.67353 | 9.09507 | 4210 ft | 213 kts | 295° |
| 2026-05-06 17:21 | 48.68348 | 9.07706 | 4622 ft | 233 kts | 314° |
| 2026-05-06 17:21 | 48.69761 | 9.06308 | 4954 ft | 260 kts | 335° |
| 2026-05-06 17:21 | 48.71533 | 9.05370 | 5002 ft | 271 kts | 338° |
| 2026-05-06 17:22 | 48.73300 | 9.04500 | 5375 ft | 273 kts | 342° |
| 2026-05-06 17:22 | 48.75210 | 9.04243 | 6176 ft | 281 kts | 4° |
| 2026-05-06 17:22 | 48.77114 | 9.05006 | 6924 ft | 288 kts | 18° |
| 2026-05-06 17:22 | 48.79030 | 9.05970 | 7638 ft | 291 kts | 14° |
| 2026-05-06 17:23 | 48.80989 | 9.06807 | 8383 ft | 295 kts | 13° |
| 2026-05-06 17:23 | 48.82987 | 9.07609 | 9128 ft | 298 kts | 12° |
| 2026-05-06 17:23 | 48.85002 | 9.08418 | 9847 ft | 302 kts | 13° |
| 2026-05-06 17:23 | 48.87062 | 9.09265 | 10312 ft | 314 kts | 13° |
| 2026-05-06 17:24 | 48.89225 | 9.10178 | 10627 ft | 331 kts | 14° |
| 2026-05-06 17:24 | 48.91492 | 9.11153 | 10903 ft | 347 kts | 14° |
| 2026-05-06 17:24 | 48.93872 | 9.12185 | 11158 ft | 363 kts | 14° |
| 2026-05-06 17:24 | 48.96351 | 9.13272 | 11378 ft | 379 kts | 14° |
| 2026-05-06 17:25 | 48.98918 | 9.14404 | 11812 ft | 387 kts | 14° |
| 2026-05-06 17:25 | 49.01515 | 9.15548 | 12418 ft | 390 kts | 14° |
| 2026-05-06 17:25 | 49.04133 | 9.16701 | 13042 ft | 394 kts | 14° |
| 2026-05-06 17:25 | 49.06780 | 9.17864 | 13642 ft | 397 kts | 14° |
| 2026-05-06 17:26 | 49.09446 | 9.19037 | 14287 ft | 401 kts | 15° |
| 2026-05-06 17:26 | 49.12141 | 9.20227 | 14894 ft | 404 kts | 15° |
| 2026-05-06 17:26 | 49.14852 | 9.21424 | 15437 ft | 407 kts | 15° |
| 2026-05-06 17:26 | 49.17587 | 9.22630 | 15958 ft | 410 kts | 15° |
| 2026-05-06 17:27 | 49.20343 | 9.23845 | 16500 ft | 414 kts | 15° |
| 2026-05-06 17:27 | 49.23118 | 9.25071 | 17025 ft | 417 kts | 15° |
| 2026-05-06 17:27 | 49.25914 | 9.26306 | 17577 ft | 420 kts | 15° |
| 2026-05-06 17:27 | 49.28739 | 9.27554 | 18114 ft | 424 kts | 15° |
| 2026-05-06 17:28 | 49.31581 | 9.28816 | 18573 ft | 427 kts | 15° |
| 2026-05-06 17:28 | 49.34449 | 9.30070 | 19045 ft | 430 kts | 13° |
| 2026-05-06 17:28 | 49.37400 | 9.30842 | 19517 ft | 431 kts | 5° |
| 2026-05-06 17:28 | 49.40391 | 9.31284 | 19965 ft | 434 kts | 5° |
| 2026-05-06 17:29 | 49.43416 | 9.31723 | 20406 ft | 437 kts | 5° |
| 2026-05-06 17:29 | 49.46461 | 9.32161 | 20822 ft | 440 kts | 5° |
| 2026-05-06 17:29 | 49.49512 | 9.32604 | 21227 ft | 442 kts | 5° |
| 2026-05-06 17:29 | 49.52583 | 9.33053 | 21614 ft | 445 kts | 5° |
| 2026-05-06 17:30 | 49.55674 | 9.33512 | 21993 ft | 447 kts | 5° |
| 2026-05-06 17:30 | 49.58781 | 9.33978 | 22365 ft | 449 kts | 5° |
| 2026-05-06 17:30 | 49.60845 | 9.34290 | 22597 ft | 451 kts | 5° |
| 2026-05-06 17:30 | 49.63970 | 9.34762 | 22950 ft | 453 kts | 5° |
| 2026-05-06 17:31 | 49.67119 | 9.35236 | 23292 ft | 455 kts | 5° |
| 2026-05-06 17:31 | 49.70277 | 9.35709 | 23588 ft | 458 kts | 5° |
| 2026-05-06 17:31 | 49.73453 | 9.36185 | 23861 ft | 460 kts | 6° |
| 2026-05-06 17:31 | 49.76629 | 9.37045 | 24149 ft | 461 kts | 14° |
| 2026-05-06 17:32 | 49.79731 | 9.38235 | 24418 ft | 463 kts | 14° |
| 2026-05-06 17:32 | 49.82871 | 9.39438 | 24690 ft | 466 kts | 14° |
| 2026-05-06 17:32 | 49.86023 | 9.40648 | 24959 ft | 468 kts | 14° |
| 2026-05-06 17:32 | 49.89189 | 9.41869 | 25230 ft | 470 kts | 14° |
| 2026-05-06 17:33 | 49.92363 | 9.43093 | 25590 ft | 469 kts | 14° |
| 2026-05-06 17:33 | 49.95526 | 9.44317 | 25999 ft | 468 kts | 14° |
| 2026-05-06 17:33 | 49.98681 | 9.45542 | 26405 ft | 467 kts | 14° |
| 2026-05-06 17:33 | 50.01841 | 9.46766 | 26804 ft | 467 kts | 14° |
| 2026-05-06 17:34 | 50.04987 | 9.47984 | 27212 ft | 466 kts | 14° |
| 2026-05-06 17:34 | 50.08172 | 9.48909 | 27627 ft | 466 kts | 6° |
| 2026-05-06 17:34 | 50.11385 | 9.49435 | 28035 ft | 465 kts | 6° |
| 2026-05-06 17:34 | 50.14484 | 9.49939 | 28413 ft | 465 kts | 6° |